sensor_id;sensor_type;location;lat;lon;timestamp;pressure;altitude;pressure_sealevel;temperature;humidity
39949;BME280;29070;48.102;-1.652;2023-03-23T00:02:14;100215.69;;;12.43;82.88
39949;BME280;29070;48.102;-1.652;2023-03-23T00:07:14;100222.78;;;12.43;82.68
39949;BME280;29070;48.102;-1.652;2023-03-23T00:12:25;100222.97;;;12.41;82.70
39949;BME280;29070;48.102;-1.652;2023-03-23T00:17:33;100214.88;;;12.43;82.78
39949;BME280;29070;48.102;-1.652;2023-03-23T00:22:33;100213.88;;;12.44;82.37
39949;BME280;29070;48.102;-1.652;2023-03-23T00:27:37;100218.91;;;12.45;82.35
39949;BME280;29070;48.102;-1.652;2023-03-23T00:32:38;100218.44;;;12.48;82.40
39949;BME280;29070;48.102;-1.652;2023-03-23T00:37:38;100230.16;;;12.52;82.30
39949;BME280;29070;48.102;-1.652;2023-03-23T00:42:39;100227.53;;;12.52;82.29
39949;BME280;29070;48.102;-1.652;2023-03-23T00:47:39;100207.72;;;12.50;82.08
39949;BME280;29070;48.102;-1.652;2023-03-23T00:52:41;100199.22;;;12.48;82.01
39949;BME280;29070;48.102;-1.652;2023-03-23T00:57:41;100205.28;;;12.48;81.89
39949;BME280;29070;48.102;-1.652;2023-03-23T01:02:42;100215.59;;;12.50;81.79
39949;BME280;29070;48.102;-1.652;2023-03-23T01:07:45;100210.13;;;12.51;81.83
39949;BME280;29070;48.102;-1.652;2023-03-23T01:12:46;100218.59;;;12.53;82.01
39949;BME280;29070;48.102;-1.652;2023-03-23T01:17:46;100231.19;;;12.51;81.61
39949;BME280;29070;48.102;-1.652;2023-03-23T01:22:47;100219.06;;;12.50;80.93
39949;BME280;29070;48.102;-1.652;2023-03-23T01:27:47;100219.84;;;12.51;80.99
39949;BME280;29070;48.102;-1.652;2023-03-23T01:32:48;100201.44;;;12.51;81.00
39949;BME280;29070;48.102;-1.652;2023-03-23T01:37:48;100201.28;;;12.46;80.70
39949;BME280;29070;48.102;-1.652;2023-03-23T01:42:48;100221.53;;;12.45;80.66
39949;BME280;29070;48.102;-1.652;2023-03-23T01:47:54;100199.91;;;12.43;80.46
39949;BME280;29070;48.102;-1.652;2023-03-23T01:52:57;100215.56;;;12.38;80.26
39949;BME280;29070;48.102;-1.652;2023-03-23T01:57:59;100202.97;;;12.40;80.31
39949;BME280;29070;48.102;-1.652;2023-03-23T02:03:00;100201.34;;;12.39;80.28
39949;BME280;29070;48.102;-1.652;2023-03-23T02:08:03;100199.97;;;12.36;79.86
39949;BME280;29070;48.102;-1.652;2023-03-23T02:13:07;100212.34;;;12.36;79.87
39949;BME280;29070;48.102;-1.652;2023-03-23T02:33:56;100213.63;;;12.27;79.87
39949;BME280;29070;48.102;-1.652;2023-03-23T02:39:12;100208.34;;;12.27;79.88
39949;BME280;29070;48.102;-1.652;2023-03-23T02:44:14;100211.59;;;12.29;79.79
39949;BME280;29070;48.102;-1.652;2023-03-23T02:49:15;100215.81;;;12.30;79.88
39949;BME280;29070;48.102;-1.652;2023-03-23T02:54:18;100227.38;;;12.29;79.88
39949;BME280;29070;48.102;-1.652;2023-03-23T02:59:20;100232.94;;;12.20;80.02
39949;BME280;29070;48.102;-1.652;2023-03-23T03:04:22;100212.75;;;12.14;80.18
39949;BME280;29070;48.102;-1.652;2023-03-23T03:14:57;100194.81;;;12.05;80.42
39949;BME280;29070;48.102;-1.652;2023-03-23T03:20:02;100202.56;;;11.99;80.43
39949;BME280;29070;48.102;-1.652;2023-03-23T03:25:14;100190.81;;;12.02;80.43
39949;BME280;29070;48.102;-1.652;2023-03-23T03:30:20;100181.31;;;12.01;80.55
39949;BME280;29070;48.102;-1.652;2023-03-23T03:35:22;100187.16;;;12.03;80.82
39949;BME280;29070;48.102;-1.652;2023-03-23T03:40:23;100189.19;;;12.01;80.90
39949;BME280;29070;48.102;-1.652;2023-03-23T03:45:24;100174.44;;;12.00;80.96
39949;BME280;29070;48.102;-1.652;2023-03-23T03:50:24;100190.81;;;12.02;81.18
39949;BME280;29070;48.102;-1.652;2023-03-23T03:55:25;100200.72;;;12.00;81.46
39949;BME280;29070;48.102;-1.652;2023-03-23T04:00:28;100192.19;;;12.05;81.39
39949;BME280;29070;48.102;-1.652;2023-03-23T04:05:28;100200.88;;;12.05;81.74
39949;BME280;29070;48.102;-1.652;2023-03-23T04:10:33;100185.09;;;12.05;81.71
39949;BME280;29070;48.102;-1.652;2023-03-23T04:15:33;100187.53;;;12.07;81.73
39949;BME280;29070;48.102;-1.652;2023-03-23T04:20:34;100189.94;;;12.08;81.94
39949;BME280;29070;48.102;-1.652;2023-03-23T04:25:34;100202.09;;;12.09;82.14
39949;BME280;29070;48.102;-1.652;2023-03-23T04:30:36;100192.13;;;12.11;82.12
39949;BME280;29070;48.102;-1.652;2023-03-23T04:35:36;100191.72;;;12.14;82.20
39949;BME280;29070;48.102;-1.652;2023-03-23T04:40:42;100189.09;;;12.14;82.15
39949;BME280;29070;48.102;-1.652;2023-03-23T04:45:43;100209.31;;;12.14;83.46
39949;BME280;29070;48.102;-1.652;2023-03-23T04:50:46;100206.66;;;12.14;82.16
39949;BME280;29070;48.102;-1.652;2023-03-23T04:55:48;100210.50;;;12.18;82.52
39949;BME280;29070;48.102;-1.652;2023-03-23T05:00:49;100203.63;;;12.17;82.73
39949;BME280;29070;48.102;-1.652;2023-03-23T05:05:49;100208.28;;;12.15;82.88
39949;BME280;29070;48.102;-1.652;2023-03-23T05:10:54;100216.97;;;12.15;82.87
39949;BME280;29070;48.102;-1.652;2023-03-23T05:15:54;100222.25;;;12.15;82.86
39949;BME280;29070;48.102;-1.652;2023-03-23T05:20:59;100225.47;;;12.17;82.80
39949;BME280;29070;48.102;-1.652;2023-03-23T05:25:59;100229.13;;;12.16;82.99
39949;BME280;29070;48.102;-1.652;2023-03-23T05:31:03;100232.34;;;12.18;82.80
39949;BME280;29070;48.102;-1.652;2023-03-23T05:36:03;100219.78;;;12.20;82.96
39949;BME280;29070;48.102;-1.652;2023-03-23T05:41:04;100234.31;;;12.23;82.86
39949;BME280;29070;48.102;-1.652;2023-03-23T05:46:04;100225.47;;;12.17;82.92
39949;BME280;29070;48.102;-1.652;2023-03-23T05:51:05;100227.09;;;12.18;82.83
39949;BME280;29070;48.102;-1.652;2023-03-23T05:56:05;100222.63;;;12.19;82.73
39949;BME280;29070;48.102;-1.652;2023-03-23T06:01:07;100233.50;;;12.23;82.70
39949;BME280;29070;48.102;-1.652;2023-03-23T06:06:10;100235.13;;;12.24;82.84
39949;BME280;29070;48.102;-1.652;2023-03-23T06:11:11;100228.63;;;12.26;82.85
39949;BME280;29070;48.102;-1.652;2023-03-23T06:16:12;100252.50;;;12.25;82.76
39949;BME280;29070;48.102;-1.652;2023-03-23T06:21:12;100254.56;;;12.23;82.58
39949;BME280;29070;48.102;-1.652;2023-03-23T06:26:14;100260.97;;;12.27;82.80
39949;BME280;29070;48.102;-1.652;2023-03-23T06:31:16;100279.41;;;12.27;82.57
39949;BME280;29070;48.102;-1.652;2023-03-23T06:36:19;100265.81;;;12.30;82.56
39949;BME280;29070;48.102;-1.652;2023-03-23T06:41:20;100281.19;;;12.33;82.55
39949;BME280;29070;48.102;-1.652;2023-03-23T06:46:21;100279.94;;;12.35;82.53
39949;BME280;29070;48.102;-1.652;2023-03-23T06:51:21;100295.09;;;12.40;82.77
39949;BME280;29070;48.102;-1.652;2023-03-23T06:56:22;100288.16;;;12.46;82.77
39949;BME280;29070;48.102;-1.652;2023-03-23T07:01:22;100291.88;;;12.56;82.85
39949;BME280;29070;48.102;-1.652;2023-03-23T07:06:24;100291.47;;;12.59;82.76
39949;BME280;29070;48.102;-1.652;2023-03-23T07:11:25;100278.88;;;12.62;82.62
39949;BME280;29070;48.102;-1.652;2023-03-23T07:16:26;100281.66;;;12.67;82.54
39949;BME280;29070;48.102;-1.652;2023-03-23T07:21:27;100276.31;;;12.73;82.55
39949;BME280;29070;48.102;-1.652;2023-03-23T07:26:27;100292.03;;;12.80;82.47
39949;BME280;29070;48.102;-1.652;2023-03-23T07:31:27;100277.41;;;12.84;82.39
39949;BME280;29070;48.102;-1.652;2023-03-23T07:36:28;100271.25;;;12.90;82.35
39949;BME280;29070;48.102;-1.652;2023-03-23T07:41:29;100270.97;;;12.99;82.31
39949;BME280;29070;48.102;-1.652;2023-03-23T07:46:29;100261.72;;;13.08;82.28
39949;BME280;29070;48.102;-1.652;2023-03-23T07:51:30;100274.34;;;13.18;82.22
39949;BME280;29070;48.102;-1.652;2023-03-23T07:56:31;100271.84;;;13.23;81.73
39949;BME280;29070;48.102;-1.652;2023-03-23T08:01:32;100277.47;;;13.26;81.79
39949;BME280;29070;48.102;-1.652;2023-03-23T08:06:33;100277.66;;;13.31;81.47
39949;BME280;29070;48.102;-1.652;2023-03-23T08:11:35;100267.91;;;13.32;81.12
39949;BME280;29070;48.102;-1.652;2023-03-23T08:16:35;100286.84;;;13.41;81.41
39949;BME280;29070;48.102;-1.652;2023-03-23T08:21:35;100280.44;;;13.48;81.32
39949;BME280;29070;48.102;-1.652;2023-03-23T08:26:36;100285.41;;;13.57;81.25
39949;BME280;29070;48.102;-1.652;2023-03-23T08:31:38;100292.66;;;13.61;80.98
39949;BME280;29070;48.102;-1.652;2023-03-23T08:36:39;100293.00;;;13.65;81.03
39949;BME280;29070;48.102;-1.652;2023-03-23T08:41:40;100265.28;;;13.74;80.63
39949;BME280;29070;48.102;-1.652;2023-03-23T08:46:41;100285.38;;;13.87;80.78
39949;BME280;29070;48.102;-1.652;2023-03-23T08:51:41;100313.72;;;13.91;80.44
39949;BME280;29070;48.102;-1.652;2023-03-23T08:56:42;100310.13;;;13.86;80.08
39949;BME280;29070;48.102;-1.652;2023-03-23T09:01:42;100331.13;;;13.81;80.14
39949;BME280;29070;48.102;-1.652;2023-03-23T09:06:42;100309.31;;;13.73;79.82
39949;BME280;29070;48.102;-1.652;2023-03-23T09:11:44;100319.38;;;13.65;79.65
39949;BME280;29070;48.102;-1.652;2023-03-23T09:16:45;100309.63;;;13.65;79.61
39949;BME280;29070;48.102;-1.652;2023-03-23T09:21:45;100314.91;;;13.65;79.63
39949;BME280;29070;48.102;-1.652;2023-03-23T09:26:46;100300.66;;;13.66;79.28
39949;BME280;29070;48.102;-1.652;2023-03-23T09:31:47;100310.81;;;13.81;79.67
39949;BME280;29070;48.102;-1.652;2023-03-23T09:36:48;100309.09;;;13.87;79.65
39949;BME280;29070;48.102;-1.652;2023-03-23T09:42:11;100305.91;;;13.85;79.43
39949;BME280;29070;48.102;-1.652;2023-03-23T09:52:52;100290.44;;;14.24;79.68
39949;BME280;29070;48.102;-1.652;2023-03-23T10:03:19;100276.75;;;14.74;78.96
39949;BME280;29070;48.102;-1.652;2023-03-23T10:08:24;100270.75;;;14.79;78.60
39949;BME280;29070;48.102;-1.652;2023-03-23T10:18:37;100286.16;;;14.82;77.47
39949;BME280;29070;48.102;-1.652;2023-03-23T10:23:58;100293.75;;;14.78;76.92
39949;BME280;29070;48.102;-1.652;2023-03-23T10:29:08;100308.09;;;14.82;77.02
39949;BME280;29070;48.102;-1.652;2023-03-23T10:39:53;100306.44;;;15.05;76.52
39949;BME280;29070;48.102;-1.652;2023-03-23T10:44:56;100323.97;;;15.11;76.28
39949;BME280;29070;48.102;-1.652;2023-03-23T10:50:00;100317.13;;;14.98;75.97
39949;BME280;29070;48.102;-1.652;2023-03-23T11:00:06;100304.88;;;14.80;75.59
39949;BME280;29070;48.102;-1.652;2023-03-23T11:05:21;100301.22;;;14.81;75.79
39949;BME280;29070;48.102;-1.652;2023-03-23T11:10:35;100281.31;;;14.79;75.68
39949;BME280;29070;48.102;-1.652;2023-03-23T11:15:38;100287.91;;;14.76;75.52
39949;BME280;29070;48.102;-1.652;2023-03-23T11:20:41;100284.56;;;14.81;75.72
39949;BME280;29070;48.102;-1.652;2023-03-23T11:25:59;100289.13;;;14.97;75.55
39949;BME280;29070;48.102;-1.652;2023-03-23T11:31:04;100270.00;;;15.07;75.17
39949;BME280;29070;48.102;-1.652;2023-03-23T11:36:07;100278.53;;;14.97;74.87
39949;BME280;29070;48.102;-1.652;2023-03-23T11:41:12;100258.00;;;14.87;74.63
39949;BME280;29070;48.102;-1.652;2023-03-23T11:46:20;100262.03;;;14.78;74.57
39949;BME280;29070;48.102;-1.652;2023-03-23T11:51:47;100256.97;;;14.89;74.57
39949;BME280;29070;48.102;-1.652;2023-03-23T11:56:49;100262.25;;;14.89;74.61
39949;BME280;29070;48.102;-1.652;2023-03-23T12:07:19;100239.88;;;15.08;74.26
39949;BME280;29070;48.102;-1.652;2023-03-23T12:28:38;100223.28;;;15.58;73.75
39949;BME280;29070;48.102;-1.652;2023-03-23T12:39:05;100213.84;;;15.96;73.27
39949;BME280;29070;48.102;-1.652;2023-03-23T12:44:11;100213.56;;;16.15;73.03
39949;BME280;29070;48.102;-1.652;2023-03-23T12:49:19;100217.09;;;16.20;72.59
39949;BME280;29070;48.102;-1.652;2023-03-23T12:54:30;100209.41;;;16.41;72.17
39949;BME280;29070;48.102;-1.652;2023-03-23T12:59:56;100191.09;;;16.39;68.51
39949;BME280;29070;48.102;-1.652;2023-03-23T13:05:05;100201.28;;;16.48;71.20
39949;BME280;29070;48.102;-1.652;2023-03-23T13:10:25;100183.47;;;16.43;68.74
39949;BME280;29070;48.102;-1.652;2023-03-23T13:15:30;100185.31;;;16.43;70.59
39949;BME280;29070;48.102;-1.652;2023-03-23T13:25:52;100178.66;;;16.62;69.19
39949;BME280;29070;48.102;-1.652;2023-03-23T13:30:58;100171.19;;;16.59;68.64
39949;BME280;29070;48.102;-1.652;2023-03-23T13:36:04;100148.91;;;16.55;67.67
39949;BME280;29070;48.102;-1.652;2023-03-23T13:41:11;100154.75;;;16.57;67.76
39949;BME280;29070;48.102;-1.652;2023-03-23T13:46:24;100148.66;;;16.56;66.18
39949;BME280;29070;48.102;-1.652;2023-03-23T13:51:36;100155.22;;;16.54;66.06
39949;BME280;29070;48.102;-1.652;2023-03-23T14:01:57;100137.44;;;16.27;66.18
39949;BME280;29070;48.102;-1.652;2023-03-23T14:07:17;100153.84;;;16.24;66.06
39949;BME280;29070;48.102;-1.652;2023-03-23T14:12:26;100122.06;;;16.02;63.43
39949;BME280;29070;48.102;-1.652;2023-03-23T14:17:43;100123.03;;;16.18;63.60
39949;BME280;29070;48.102;-1.652;2023-03-23T14:22:45;100127.25;;;16.14;65.09
39949;BME280;29070;48.102;-1.652;2023-03-23T14:27:45;100111.03;;;16.10;64.77
39949;BME280;29070;48.102;-1.652;2023-03-23T14:32:46;100110.16;;;15.82;64.85
39949;BME280;29070;48.102;-1.652;2023-03-23T14:37:48;100115.31;;;15.55;65.04
39949;BME280;29070;48.102;-1.652;2023-03-23T14:42:50;100086.97;;;15.34;65.72
39949;BME280;29070;48.102;-1.652;2023-03-23T14:47:54;100059.09;;;15.26;66.39
39949;BME280;29070;48.102;-1.652;2023-03-23T14:53:00;100064.88;;;15.23;67.23
39949;BME280;29070;48.102;-1.652;2023-03-23T14:58:08;100071.44;;;15.03;68.09
39949;BME280;29070;48.102;-1.652;2023-03-23T15:03:12;100055.72;;;14.97;68.13
39949;BME280;29070;48.102;-1.652;2023-03-23T15:08:19;100046.94;;;14.74;68.72
39949;BME280;29070;48.102;-1.652;2023-03-23T15:13:20;100039.47;;;14.71;68.62
39949;BME280;29070;48.102;-1.652;2023-03-23T15:18:33;100022.09;;;14.58;70.34
39949;BME280;29070;48.102;-1.652;2023-03-23T15:23:41;100027.41;;;14.46;70.68
39949;BME280;29070;48.102;-1.652;2023-03-23T15:28:41;100023.63;;;14.42;70.37
39949;BME280;29070;48.102;-1.652;2023-03-23T15:33:42;100014.03;;;14.36;70.83
39949;BME280;29070;48.102;-1.652;2023-03-23T15:38:44;100018.16;;;14.32;71.23
39949;BME280;29070;48.102;-1.652;2023-03-23T15:43:53;100022.47;;;14.21;72.03
39949;BME280;29070;48.102;-1.652;2023-03-23T15:54:01;100027.38;;;14.01;72.84
39949;BME280;29070;48.102;-1.652;2023-03-23T15:59:01;100019.13;;;13.97;73.52
39949;BME280;29070;48.102;-1.652;2023-03-23T16:04:09;99997.25;;;13.85;74.07
39949;BME280;29070;48.102;-1.652;2023-03-23T16:09:16;99990.25;;;13.79;73.82
39949;BME280;29070;48.102;-1.652;2023-03-23T16:14:17;99973.31;;;13.75;73.93
39949;BME280;29070;48.102;-1.652;2023-03-23T16:19:17;99985.03;;;13.67;74.33
39949;BME280;29070;48.102;-1.652;2023-03-23T16:24:19;99971.97;;;13.60;74.71
39949;BME280;29070;48.102;-1.652;2023-03-23T16:29:20;99946.28;;;13.56;75.24
39949;BME280;29070;48.102;-1.652;2023-03-23T16:34:20;99940.13;;;13.50;75.38
39949;BME280;29070;48.102;-1.652;2023-03-23T16:39:20;99925.69;;;13.52;75.23
39949;BME280;29070;48.102;-1.652;2023-03-23T16:44:22;99922.81;;;13.54;75.73
39949;BME280;29070;48.102;-1.652;2023-03-23T16:49:22;99930.63;;;13.49;76.10
39949;BME280;29070;48.102;-1.652;2023-03-23T16:54:23;99928.09;;;13.54;76.13
39949;BME280;29070;48.102;-1.652;2023-03-23T16:59:26;99904.25;;;13.49;76.63
39949;BME280;29070;48.102;-1.652;2023-03-23T17:04:27;99916.06;;;13.46;76.78
39949;BME280;29070;48.102;-1.652;2023-03-23T17:09:27;99907.25;;;13.41;77.21
39949;BME280;29070;48.102;-1.652;2023-03-23T17:14:28;99901.06;;;13.47;77.01
39949;BME280;29070;48.102;-1.652;2023-03-23T17:19:28;99907.34;;;13.46;77.44
39949;BME280;29070;48.102;-1.652;2023-03-23T17:24:28;99894.53;;;13.38;77.99
39949;BME280;29070;48.102;-1.652;2023-03-23T17:29:29;99878.28;;;13.29;78.31
39949;BME280;29070;48.102;-1.652;2023-03-23T17:34:29;99873.00;;;13.29;78.25
39949;BME280;29070;48.102;-1.652;2023-03-23T17:39:30;99862.13;;;13.25;78.64
39949;BME280;29070;48.102;-1.652;2023-03-23T17:44:31;99864.75;;;13.25;78.66
39949;BME280;29070;48.102;-1.652;2023-03-23T17:49:31;99847.09;;;13.26;78.65
39949;BME280;29070;48.102;-1.652;2023-03-23T17:54:32;99856.88;;;13.25;79.02
39949;BME280;29070;48.102;-1.652;2023-03-23T17:59:32;99847.56;;;13.23;79.52
39949;BME280;29070;48.102;-1.652;2023-03-23T18:04:33;99855.25;;;13.24;79.42
39949;BME280;29070;48.102;-1.652;2023-03-23T18:09:33;99852.84;;;13.23;79.82
39949;BME280;29070;48.102;-1.652;2023-03-23T18:14:33;99836.38;;;13.15;80.23
39949;BME280;29070;48.102;-1.652;2023-03-23T18:19:34;99832.38;;;13.13;80.19
39949;BME280;29070;48.102;-1.652;2023-03-23T18:24:35;99830.75;;;13.12;80.34
39949;BME280;29070;48.102;-1.652;2023-03-23T18:29:36;99832.84;;;13.10;80.37
39949;BME280;29070;48.102;-1.652;2023-03-23T18:34:39;99841.19;;;13.07;81.15
39949;BME280;29070;48.102;-1.652;2023-03-23T18:39:40;99833.75;;;13.04;81.11
39949;BME280;29070;48.102;-1.652;2023-03-23T18:44:41;99824.16;;;12.97;81.61
39949;BME280;29070;48.102;-1.652;2023-03-23T18:49:41;99821.06;;;13.01;81.35
39949;BME280;29070;48.102;-1.652;2023-03-23T18:54:41;99803.09;;;12.97;81.59
39949;BME280;29070;48.102;-1.652;2023-03-23T18:59:44;99794.84;;;12.94;81.73
39949;BME280;29070;48.102;-1.652;2023-03-23T19:04:46;99789.00;;;12.92;81.76
39949;BME280;29070;48.102;-1.652;2023-03-23T19:09:46;99793.50;;;12.91;81.60
39949;BME280;29070;48.102;-1.652;2023-03-23T19:14:47;99812.16;;;12.90;81.88
39949;BME280;29070;48.102;-1.652;2023-03-23T19:19:47;99794.41;;;12.85;81.93
39949;BME280;29070;48.102;-1.652;2023-03-23T19:24:48;99799.66;;;12.85;81.82
39949;BME280;29070;48.102;-1.652;2023-03-23T19:29:48;99802.75;;;12.82;82.09
39949;BME280;29070;48.102;-1.652;2023-03-23T19:34:49;99822.69;;;12.78;82.65
39949;BME280;29070;48.102;-1.652;2023-03-23T19:39:49;99822.47;;;12.80;82.35
39949;BME280;29070;48.102;-1.652;2023-03-23T19:44:50;99837.47;;;12.79;82.81
39949;BME280;29070;48.102;-1.652;2023-03-23T19:49:50;99829.00;;;12.77;82.85
39949;BME280;29070;48.102;-1.652;2023-03-23T19:54:51;99852.72;;;12.77;82.77
39949;BME280;29070;48.102;-1.652;2023-03-23T19:59:51;99844.81;;;12.77;82.93
39949;BME280;29070;48.102;-1.652;2023-03-23T20:04:52;99853.72;;;12.76;83.09
39949;BME280;29070;48.102;-1.652;2023-03-23T20:09:52;99855.00;;;12.73;83.35
39949;BME280;29070;48.102;-1.652;2023-03-23T20:14:52;99844.47;;;12.73;83.53
39949;BME280;29070;48.102;-1.652;2023-03-23T20:19:53;99835.97;;;12.71;83.87
39949;BME280;29070;48.102;-1.652;2023-03-23T20:24:53;99833.34;;;12.71;83.84
39949;BME280;29070;48.102;-1.652;2023-03-23T20:29:54;99830.25;;;12.74;83.91
39949;BME280;29070;48.102;-1.652;2023-03-23T20:34:54;99827.84;;;12.73;83.76
39949;BME280;29070;48.102;-1.652;2023-03-23T20:39:56;99846.84;;;12.75;83.88
39949;BME280;29070;48.102;-1.652;2023-03-23T20:44:56;99876.88;;;12.74;84.09
39949;BME280;29070;48.102;-1.652;2023-03-23T20:49:58;99890.03;;;12.74;84.09
39949;BME280;29070;48.102;-1.652;2023-03-23T20:54:59;99908.00;;;12.77;84.30
39949;BME280;29070;48.102;-1.652;2023-03-23T20:59:59;99917.38;;;12.73;84.70
39949;BME280;29070;48.102;-1.652;2023-03-23T21:05:01;99934.78;;;12.74;84.56
39949;BME280;29070;48.102;-1.652;2023-03-23T21:10:03;99942.56;;;12.69;84.47
39949;BME280;29070;48.102;-1.652;2023-03-23T21:15:04;99947.94;;;12.62;83.99
39949;BME280;29070;48.102;-1.652;2023-03-23T21:20:05;99951.72;;;12.54;83.55
39949;BME280;29070;48.102;-1.652;2023-03-23T21:25:07;99972.16;;;12.40;82.79
39949;BME280;29070;48.102;-1.652;2023-03-23T21:30:09;99986.88;;;12.30;82.70
39949;BME280;29070;48.102;-1.652;2023-03-23T21:35:10;99997.16;;;12.19;82.23
39949;BME280;29070;48.102;-1.652;2023-03-23T21:40:12;99998.47;;;12.10;82.25
39949;BME280;29070;48.102;-1.652;2023-03-23T21:45:14;99989.75;;;11.98;82.05
39949;BME280;29070;48.102;-1.652;2023-03-23T21:50:17;100009.63;;;11.94;82.23
39949;BME280;29070;48.102;-1.652;2023-03-23T21:55:21;100020.28;;;11.80;81.99
39949;BME280;29070;48.102;-1.652;2023-03-23T22:00:22;100011.78;;;11.78;82.10
39949;BME280;29070;48.102;-1.652;2023-03-23T22:05:22;100021.06;;;11.81;81.99
39949;BME280;29070;48.102;-1.652;2023-03-23T22:10:23;99982.28;;;11.76;82.01
39949;BME280;29070;48.102;-1.652;2023-03-23T22:15:24;100030.88;;;11.74;81.84
39949;BME280;29070;48.102;-1.652;2023-03-23T22:20:26;100039.03;;;11.66;81.95
39949;BME280;29070;48.102;-1.652;2023-03-23T22:25:28;100035.88;;;11.57;82.00
39949;BME280;29070;48.102;-1.652;2023-03-23T22:30:31;100029.03;;;11.56;82.05
39949;BME280;29070;48.102;-1.652;2023-03-23T22:35:32;100036.34;;;11.54;81.97
39949;BME280;29070;48.102;-1.652;2023-03-23T22:40:32;100033.72;;;11.54;82.02
39949;BME280;29070;48.102;-1.652;2023-03-23T22:45:33;100032.72;;;11.48;82.26
39949;BME280;29070;48.102;-1.652;2023-03-23T22:50:34;100024.94;;;11.41;82.22
39949;BME280;29070;48.102;-1.652;2023-03-23T22:55:34;100028.41;;;11.35;82.17
39949;BME280;29070;48.102;-1.652;2023-03-23T23:00:36;100045.06;;;11.29;82.21
39949;BME280;29070;48.102;-1.652;2023-03-23T23:05:47;100049.56;;;11.22;82.28
39949;BME280;29070;48.102;-1.652;2023-03-23T23:10:49;100054.81;;;11.22;82.39
39949;BME280;29070;48.102;-1.652;2023-03-23T23:15:52;100056.03;;;11.19;82.42
39949;BME280;29070;48.102;-1.652;2023-03-23T23:20:55;100048.97;;;11.20;82.37
39949;BME280;29070;48.102;-1.652;2023-03-23T23:25:56;100054.06;;;11.15;82.42
39949;BME280;29070;48.102;-1.652;2023-03-23T23:30:56;100055.75;;;11.09;82.21
39949;BME280;29070;48.102;-1.652;2023-03-23T23:35:57;100016.19;;;11.04;82.26
39949;BME280;29070;48.102;-1.652;2023-03-23T23:40:57;100016.41;;;11.02;82.25
39949;BME280;29070;48.102;-1.652;2023-03-23T23:45:57;100038.09;;;10.91;82.00
39949;BME280;29070;48.102;-1.652;2023-03-23T23:50:58;100045.38;;;10.89;82.35
39949;BME280;29070;48.102;-1.652;2023-03-23T23:56:02;100051.88;;;10.86;82.17
